createdAt,value
2023-05-06T10:36:36.341Z,13.97
2023-05-06T10:41:40.836Z,13.93
2023-05-06T10:47:03.010Z,13.95
2023-05-06T10:52:18.284Z,13.93
2023-05-06T10:57:27.178Z,13.86
2023-05-06T11:02:36.960Z,13.80
2023-05-06T11:07:39.714Z,13.80
2023-05-06T11:12:53.860Z,13.82
2023-05-06T11:17:59.429Z,13.76
2023-05-06T11:23:02.425Z,13.73
2023-05-06T11:28:12.926Z,13.73
2023-05-06T11:33:19.774Z,13.71
2023-05-06T11:38:22.534Z,13.63
2023-05-06T11:43:25.189Z,13.63
2023-05-06T11:48:28.241Z,13.59
2023-05-06T11:53:30.414Z,13.57
2023-05-06T11:58:33.605Z,13.61
2023-05-06T12:03:44.825Z,13.56
2023-05-06T12:08:48.387Z,13.55
2023-05-06T12:13:50.683Z,13.49
2023-05-06T12:18:54.833Z,13.42
2023-05-06T12:24:01.861Z,13.52
2023-05-06T12:29:10.858Z,13.52
2023-05-06T12:34:18.416Z,13.49
2023-05-06T12:39:20.756Z,13.49
2023-05-06T12:44:34.646Z,13.48
2023-05-06T12:49:58.000Z,13.53
2023-05-06T12:55:07.791Z,13.61
2023-05-06T13:00:15.204Z,13.66
2023-05-06T13:05:20.777Z,13.82
2023-05-06T13:10:23.152Z,14.14
2023-05-06T13:15:25.460Z,14.50
2023-05-06T13:20:30.428Z,14.61
2023-05-06T13:25:32.771Z,14.71
2023-05-06T13:30:35.416Z,15.04
2023-05-06T13:35:37.481Z,15.12
2023-05-06T13:40:39.716Z,15.25
2023-05-06T13:45:43.473Z,15.37
2023-05-06T13:50:47.313Z,15.53
2023-05-06T13:55:49.209Z,15.55
2023-05-06T14:00:51.535Z,15.56
2023-05-06T14:05:53.776Z,15.66
2023-05-06T14:10:59.675Z,15.78
2023-05-06T14:16:02.079Z,15.89
2023-05-06T14:21:04.612Z,16.12
2023-05-06T14:26:06.632Z,16.24
2023-05-06T14:31:10.327Z,16.17
2023-05-06T14:36:18.653Z,16.19
2023-05-06T14:41:21.427Z,16.30
2023-05-06T14:46:23.652Z,16.29
2023-05-06T14:51:26.130Z,16.32
2023-05-06T14:56:28.593Z,16.44
2023-05-06T15:01:32.400Z,16.42
2023-05-06T15:06:34.483Z,16.43
2023-05-06T15:11:36.544Z,16.43
2023-05-06T15:16:39.173Z,16.18
2023-05-06T15:21:41.532Z,15.99
2023-05-06T15:26:44.359Z,15.91
2023-05-06T15:31:47.081Z,15.83
2023-05-06T15:36:53.627Z,15.87
2023-05-06T15:41:59.243Z,16.01
2023-05-06T15:47:02.099Z,16.12
2023-05-06T15:52:04.518Z,16.26
2023-05-06T15:57:07.588Z,16.13
2023-05-06T16:07:15.770Z,15.80
2023-05-06T16:12:18.718Z,15.72
2023-05-06T16:17:20.919Z,15.66
2023-05-06T16:22:22.937Z,15.71
2023-05-06T16:27:27.527Z,15.85
2023-05-06T16:32:31.760Z,15.75
2023-05-06T16:37:33.789Z,15.53
2023-05-06T16:42:36.414Z,15.28
2023-05-06T16:47:38.878Z,15.12
2023-05-06T16:52:41.566Z,15.03
2023-05-06T16:57:43.601Z,14.95
2023-05-06T17:02:46.249Z,14.94
2023-05-06T17:07:49.706Z,15.05
2023-05-06T17:12:52.750Z,15.14
2023-05-06T17:17:55.147Z,15.00
2023-05-06T17:22:58.226Z,14.83
2023-05-06T17:28:00.206Z,14.65
2023-05-06T17:33:03.764Z,14.52
2023-05-06T17:38:06.112Z,14.40
2023-05-06T17:43:11.703Z,14.23
2023-05-06T17:48:15.256Z,13.99
2023-05-06T17:53:20.428Z,13.80
2023-05-06T17:58:22.528Z,13.60
2023-05-06T18:03:25.389Z,13.42
2023-05-06T18:08:35.898Z,13.22
2023-05-06T18:13:39.634Z,13.05
2023-05-06T18:18:42.851Z,12.99
2023-05-06T18:23:45.773Z,12.88
2023-05-06T18:28:54.711Z,12.83
2023-05-06T18:34:05.051Z,12.85
2023-05-06T18:39:08.098Z,12.80
2023-05-06T18:44:14.738Z,12.74
2023-05-06T18:49:17.410Z,12.69
2023-05-06T18:54:20.446Z,12.62
2023-05-06T18:59:22.552Z,12.56
2023-05-06T19:04:25.358Z,12.41
2023-05-06T19:09:27.659Z,12.35
2023-05-06T19:14:30.660Z,12.35
2023-05-06T19:19:33.071Z,12.32
2023-05-06T19:24:35.764Z,12.32
2023-05-06T19:29:40.756Z,12.32
2023-05-06T19:34:43.178Z,12.37
2023-05-06T19:39:46.469Z,12.40
2023-05-06T19:44:49.964Z,12.41
2023-05-06T19:49:53.618Z,12.39
2023-05-06T19:54:56.650Z,12.38
2023-05-06T20:00:00.077Z,12.40
2023-05-06T20:05:06.701Z,12.39
2023-05-06T20:10:10.269Z,12.39
2023-05-06T20:15:13.289Z,12.37
2023-05-06T20:20:15.750Z,12.37
2023-05-06T20:25:18.856Z,12.42
2023-05-06T20:30:21.193Z,12.35
2023-05-06T20:35:24.331Z,12.34
2023-05-06T20:40:27.069Z,12.35
2023-05-06T20:45:32.641Z,12.29
2023-05-06T20:50:38.623Z,12.23
2023-05-06T20:55:44.409Z,12.21
2023-05-06T21:00:50.603Z,12.23
2023-05-06T21:05:53.243Z,12.25
2023-05-06T21:10:58.998Z,12.29
2023-05-06T21:16:05.730Z,12.34
2023-05-06T21:21:08.123Z,12.36
2023-05-06T21:26:13.010Z,12.39
2023-05-06T21:31:19.255Z,12.41
2023-05-06T21:36:22.115Z,12.45
2023-05-06T21:41:26.136Z,12.42
2023-05-06T21:46:32.516Z,12.40
2023-05-06T21:51:37.456Z,12.35
2023-05-06T21:56:39.709Z,12.31
2023-05-06T22:01:41.818Z,12.34
2023-05-06T22:06:44.934Z,12.37
2023-05-06T22:11:47.183Z,12.31
2023-05-06T22:16:50.439Z,12.18
2023-05-06T22:21:56.207Z,12.08
2023-05-06T22:26:58.656Z,12.06
2023-05-06T22:32:01.655Z,12.03
2023-05-06T22:37:09.644Z,11.99
2023-05-06T22:42:11.862Z,11.99
2023-05-06T22:47:14.757Z,11.96
2023-05-06T22:52:20.629Z,11.94
2023-05-06T22:57:32.836Z,11.90
2023-05-06T23:02:35.312Z,11.80
2023-05-06T23:07:39.616Z,11.71
2023-05-06T23:12:43.266Z,11.65
2023-05-06T23:17:45.828Z,11.63
2023-05-06T23:22:50.496Z,11.61
2023-05-06T23:27:56.329Z,11.58
2023-05-06T23:33:04.595Z,11.53
2023-05-06T23:38:13.262Z,11.50
2023-05-06T23:43:19.110Z,11.47
2023-05-06T23:48:22.519Z,11.39
2023-05-06T23:53:25.790Z,11.38
2023-05-06T23:58:35.687Z,11.33
